createdAt,value
2022-08-17T00:00:42.700Z,95806.41
2022-08-17T00:03:14.433Z,95807.63
2022-08-17T00:05:48.367Z,95800.53
2022-08-17T00:08:19.848Z,95802.13
2022-08-17T00:10:49.417Z,95802.25
2022-08-17T00:13:21.275Z,95804.84
2022-08-17T00:15:50.021Z,95810.88
2022-08-17T00:18:57.452Z,95815.38
2022-08-17T00:21:10.939Z,95806.94
2022-08-17T00:23:44.311Z,95796.81
2022-08-17T00:26:44.228Z,95804.81
2022-08-17T00:29:09.122Z,95807.34
2022-08-17T00:31:38.074Z,95802.38
2022-08-17T00:34:09.169Z,95799.50
2022-08-17T00:36:39.209Z,95798.25
2022-08-17T00:39:07.643Z,95795.31
2022-08-17T00:41:36.263Z,95790.03
2022-08-17T00:44:12.098Z,95785.53
2022-08-17T00:46:43.126Z,95784.22
2022-08-17T00:49:13.674Z,95786.72
2022-08-17T00:51:48.850Z,95776.34
2022-08-17T00:54:21.981Z,95776.97
2022-08-17T00:56:54.418Z,95774.56
2022-08-17T00:59:25.975Z,95779.22
2022-08-17T01:01:55.196Z,95776.28
2022-08-17T01:04:24.070Z,95775.28
2022-08-17T01:06:54.707Z,95773.16
2022-08-17T01:09:23.350Z,95768.59
2022-08-17T01:11:53.027Z,95767.25
2022-08-17T01:14:22.338Z,95763.75
2022-08-17T01:16:54.089Z,95760.25
2022-08-17T01:19:25.349Z,95759.19
2022-08-17T01:22:01.964Z,95758.13
2022-08-17T01:24:33.749Z,95753.00
2022-08-17T01:27:02.589Z,95755.69
2022-08-17T01:29:40.517Z,95754.31
2022-08-17T01:32:09.587Z,95753.75
2022-08-17T01:34:43.395Z,95750.00
2022-08-17T01:37:14.002Z,95744.63
2022-08-17T01:39:48.654Z,95754.06
2022-08-17T01:42:23.745Z,95756.00
2022-08-17T01:44:56.289Z,95755.19
2022-08-17T01:47:24.762Z,95763.28
2022-08-17T01:49:53.271Z,95759.16
2022-08-17T01:52:23.828Z,95752.66
2022-08-17T01:54:54.868Z,95750.66
2022-08-17T01:57:23.330Z,95748.81
2022-08-17T01:59:51.868Z,95741.78
2022-08-17T02:02:30.270Z,95742.94
2022-08-17T02:05:00.032Z,95746.19
2022-08-17T02:07:29.156Z,95743.00
2022-08-17T02:09:59.514Z,95745.16
2022-08-17T02:12:39.158Z,95741.91
2022-08-17T02:15:12.332Z,95738.19
2022-08-17T02:17:41.582Z,95744.88
2022-08-17T02:20:12.046Z,95742.19
2022-08-17T02:22:44.445Z,95740.06
2022-08-17T02:25:19.617Z,95740.31
2022-08-17T02:27:48.061Z,95737.88
2022-08-17T02:30:59.178Z,95736.50
2022-08-17T02:33:06.380Z,95743.50
2022-08-17T02:35:38.564Z,95740.31
2022-08-17T02:38:08.810Z,95745.38
2022-08-17T02:40:40.516Z,95740.72
2022-08-17T02:43:10.233Z,95742.59
2022-08-17T02:45:38.702Z,95743.44
2022-08-17T02:48:07.514Z,95731.56
2022-08-17T02:50:36.176Z,95734.28
2022-08-17T02:53:05.405Z,95728.31
2022-08-17T02:55:37.251Z,95729.09
2022-08-17T02:58:07.949Z,95720.16
2022-08-17T03:00:41.027Z,95716.66
2022-08-17T03:03:13.550Z,95722.59
2022-08-17T03:05:42.303Z,95720.47
2022-08-17T03:08:13.368Z,95720.41
2022-08-17T03:10:42.141Z,95720.09
2022-08-17T03:13:12.836Z,95715.22
2022-08-17T03:15:45.163Z,95713.81
2022-08-17T03:18:19.089Z,95722.41
2022-08-17T03:20:53.813Z,95718.31
2022-08-17T03:23:24.480Z,95716.16
2022-08-17T03:25:55.300Z,95707.47
2022-08-17T03:28:26.493Z,95709.47
2022-08-17T03:30:55.585Z,95718.09
2022-08-17T03:33:24.220Z,95728.00
2022-08-17T03:35:53.049Z,95721.78
2022-08-17T03:38:22.045Z,95715.84
2022-08-17T03:40:59.021Z,95722.84
2022-08-17T03:43:32.328Z,95722.75
2022-08-17T03:46:29.009Z,95720.06
2022-08-17T03:49:23.145Z,95713.00
2022-08-17T03:52:09.135Z,95723.16
2022-08-17T03:54:55.670Z,95721.91
2022-08-17T03:57:24.641Z,95723.00
2022-08-17T03:59:55.172Z,95730.63
2022-08-17T04:02:26.878Z,95734.97
2022-08-17T04:04:55.790Z,95737.72
2022-08-17T04:07:27.454Z,95735.13
2022-08-17T04:09:55.988Z,95733.31
2022-08-17T04:12:25.454Z,95740.16
2022-08-17T04:14:55.436Z,95746.44
2022-08-17T04:17:26.638Z,95746.50
2022-08-17T04:19:56.422Z,95741.63
2022-08-17T04:22:30.042Z,95746.44
2022-08-17T04:25:05.411Z,95745.84
2022-08-17T04:27:33.861Z,95752.03
2022-08-17T04:30:04.342Z,95753.34
2022-08-17T04:33:04.291Z,95742.75
2022-08-17T04:35:24.097Z,95743.59
2022-08-17T04:37:53.299Z,95740.66
2022-08-17T04:40:41.407Z,95741.44
2022-08-17T04:43:11.891Z,95742.13
2022-08-17T04:45:55.434Z,95745.47
2022-08-17T04:48:27.968Z,95735.13
2022-08-17T04:51:06.235Z,95742.19
2022-08-17T04:53:34.749Z,95741.72
2022-08-17T04:56:03.543Z,95741.47
2022-08-17T04:58:32.249Z,95753.25
2022-08-17T05:01:02.511Z,95748.31
2022-08-17T05:03:31.427Z,95757.56
2022-08-17T05:05:59.933Z,95758.63
2022-08-17T05:08:28.433Z,95753.06
2022-08-17T05:10:57.027Z,95746.16
2022-08-17T05:13:29.275Z,95747.34
2022-08-17T05:15:59.721Z,95753.66
2022-08-17T05:18:31.119Z,95753.81
2022-08-17T05:21:00.082Z,95754.06
2022-08-17T05:23:32.723Z,95756.34
2022-08-17T05:26:24.748Z,95764.59
2022-08-17T05:28:59.667Z,95757.66
2022-08-17T05:31:31.935Z,95754.06
2022-08-17T05:34:01.801Z,95753.75
2022-08-17T05:36:43.264Z,95748.94
2022-08-17T05:39:16.725Z,95741.44
2022-08-17T05:41:47.817Z,95745.81
2022-08-17T05:44:17.576Z,95744.34
2022-08-17T05:46:50.420Z,95753.28
2022-08-17T05:49:27.167Z,95744.16
2022-08-17T05:52:10.776Z,95746.09
2022-08-17T05:54:55.886Z,95734.00
2022-08-17T05:57:47.522Z,95738.38
2022-08-17T06:00:30.893Z,95738.41
2022-08-17T06:03:16.486Z,95735.53
2022-08-17T06:05:55.661Z,95732.91
2022-08-17T06:08:33.279Z,95736.16
2022-08-17T06:11:10.314Z,95737.59
2022-08-17T06:13:55.003Z,95729.84
2022-08-17T06:16:34.449Z,95733.09
2022-08-17T06:19:11.130Z,95738.28
2022-08-17T06:21:46.310Z,95738.94
2022-08-17T06:24:27.442Z,95731.72
2022-08-17T06:26:58.470Z,95742.03
2022-08-17T06:29:37.248Z,95738.34
2022-08-17T06:32:09.023Z,95741.34
2022-08-17T06:34:39.134Z,95749.19
2022-08-17T06:37:22.908Z,95762.16
2022-08-17T06:40:03.831Z,95759.47
2022-08-17T06:43:00.851Z,95768.16
2022-08-17T06:45:39.838Z,95762.81
2022-08-17T06:48:17.078Z,95764.47
2022-08-17T06:50:48.723Z,95772.06
2022-08-17T06:53:24.514Z,95772.69
2022-08-17T06:55:59.931Z,95763.03
2022-08-17T06:58:31.968Z,95765.53
2022-08-17T07:01:09.274Z,95776.38
2022-08-17T07:03:47.666Z,95777.50
2022-08-17T07:06:19.839Z,95782.13
2022-08-17T07:08:59.047Z,95790.75
2022-08-17T07:11:33.051Z,95793.22
2022-08-17T07:14:16.655Z,95787.63
2022-08-17T07:16:47.952Z,95789.53
2022-08-17T07:19:18.098Z,95789.84
2022-08-17T07:21:55.138Z,95789.06
2022-08-17T07:24:43.341Z,95788.59
2022-08-17T07:27:15.537Z,95795.94
2022-08-17T07:29:50.450Z,95784.41
2022-08-17T07:32:24.256Z,95786.38
2022-08-17T07:35:10.637Z,95786.94
2022-08-17T07:37:40.982Z,95799.94
2022-08-17T07:40:33.546Z,95802.69
2022-08-17T07:43:04.910Z,95802.69
2022-08-17T07:45:52.481Z,95801.63
2022-08-17T07:48:23.145Z,95797.31
2022-08-17T07:50:53.335Z,95800.31
2022-08-17T07:53:24.225Z,95804.94
2022-08-17T07:55:54.841Z,95802.78
2022-08-17T07:58:26.517Z,95801.44
2022-08-17T08:01:07.861Z,95798.22
2022-08-17T08:03:42.970Z,95795.84
2022-08-17T08:06:22.119Z,95798.31
2022-08-17T08:08:54.757Z,95814.81
2022-08-17T08:11:40.145Z,95824.28
2022-08-17T08:14:28.341Z,95826.19
2022-08-17T08:17:00.224Z,95824.56
2022-08-17T08:19:29.895Z,95821.88
2022-08-17T08:22:03.557Z,95825.66
2022-08-17T08:24:55.289Z,95830.28
2022-08-17T08:27:34.826Z,95827.88
2022-08-17T08:30:09.935Z,95818.94
2022-08-17T08:32:54.337Z,95821.94
2022-08-17T08:35:32.878Z,95825.19
2022-08-17T08:38:12.015Z,95822.50
2022-08-17T08:40:59.342Z,95822.22
2022-08-17T08:43:38.322Z,95819.25
2022-08-17T08:46:19.691Z,95814.59
2022-08-17T08:49:11.855Z,95817.31
2022-08-17T08:51:50.839Z,95815.94
2022-08-17T08:54:34.905Z,95816.44
2022-08-17T08:57:26.961Z,95813.16
2022-08-17T09:00:09.798Z,95818.25
2022-08-17T09:03:14.162Z,95810.34
2022-08-17T09:06:03.947Z,95809.44
2022-08-17T09:08:44.126Z,95804.22
2022-08-17T09:11:18.570Z,95799.03
2022-08-17T09:13:59.920Z,95791.84
2022-08-17T09:16:37.353Z,95804.75
2022-08-17T09:19:13.102Z,95804.94
2022-08-17T09:21:48.772Z,95802.59
2022-08-17T09:24:24.225Z,95795.41
2022-08-17T09:26:59.391Z,95799.88
2022-08-17T09:29:35.254Z,95796.25
2022-08-17T09:32:17.507Z,95786.16
2022-08-17T09:34:51.106Z,95786.91
2022-08-17T09:37:28.406Z,95787.91
2022-08-17T09:40:12.471Z,95802.16
2022-08-17T09:42:48.752Z,95802.06
2022-08-17T09:45:31.985Z,95797.28
2022-08-17T09:48:08.384Z,95803.22
2022-08-17T09:50:55.489Z,95799.84
2022-08-17T09:53:32.157Z,95800.81
2022-08-17T09:56:29.440Z,95792.94
2022-08-17T09:59:27.472Z,95795.78
2022-08-17T10:02:28.317Z,95786.97
2022-08-17T10:05:07.304Z,95794.19
2022-08-17T10:07:42.759Z,95797.63
2022-08-17T10:10:16.897Z,95798.88
2022-08-17T10:12:53.400Z,95806.88
2022-08-17T10:15:38.412Z,95805.00
2022-08-17T10:18:34.368Z,95790.63
2022-08-17T10:21:26.441Z,95792.34
2022-08-17T10:24:35.243Z,95797.09
2022-08-17T10:27:32.462Z,95783.13
2022-08-17T10:30:05.498Z,95778.69
2022-08-17T10:32:39.765Z,95785.22
2022-08-17T10:35:25.978Z,95781.09
2022-08-17T10:38:26.640Z,95783.84
2022-08-17T10:41:01.057Z,95780.88
2022-08-17T10:43:44.682Z,95781.69
2022-08-17T10:46:52.395Z,95776.44
2022-08-17T10:49:30.488Z,95771.69
2022-08-17T10:52:00.559Z,95778.97
2022-08-17T10:54:40.417Z,95780.88
2022-08-17T10:57:38.733Z,95785.31
2022-08-17T11:00:16.466Z,95784.31
2022-08-17T11:02:51.324Z,95785.31
2022-08-17T11:05:48.798Z,95786.34
2022-08-17T11:09:09.481Z,95796.00
2022-08-17T11:11:54.834Z,95790.69
2022-08-17T11:14:48.358Z,95789.66
2022-08-17T11:17:35.420Z,95786.84
2022-08-17T11:20:25.141Z,95781.53
2022-08-17T11:23:20.848Z,95775.84
2022-08-17T11:25:53.313Z,95781.56
2022-08-17T11:28:26.285Z,95788.72
2022-08-17T11:30:58.163Z,95774.47
2022-08-17T11:33:53.505Z,95766.88
2022-08-17T11:36:51.878Z,95760.63
2022-08-17T11:39:46.013Z,95761.63
2022-08-17T11:42:31.240Z,95761.34
2022-08-17T11:45:09.541Z,95768.19
2022-08-17T11:48:26.628Z,95769.22
2022-08-17T11:51:16.451Z,95768.97
2022-08-17T11:54:32.224Z,95771.91
2022-08-17T11:56:58.947Z,95769.97
2022-08-17T12:00:00.981Z,95769.22
2022-08-17T12:02:47.416Z,95767.81
2022-08-17T12:05:33.404Z,95762.72
2022-08-17T12:08:11.978Z,95769.16
2022-08-17T12:10:55.354Z,95776.09
2022-08-17T12:13:27.339Z,95771.78
2022-08-17T12:16:03.957Z,95768.28
2022-08-17T12:18:41.742Z,95761.41
2022-08-17T12:21:20.635Z,95761.09
2022-08-17T12:23:57.177Z,95753.78
2022-08-17T12:26:30.376Z,95759.47
2022-08-17T12:29:03.261Z,95751.13
2022-08-17T12:31:37.820Z,95747.91
2022-08-17T12:34:17.088Z,95754.81
2022-08-17T12:36:46.423Z,95751.47
2022-08-17T12:39:21.304Z,95756.94
2022-08-17T12:41:52.705Z,95755.66
2022-08-17T12:44:23.397Z,95752.25
2022-08-17T12:46:55.997Z,95751.78
2022-08-17T12:49:30.697Z,95749.97
2022-08-17T12:52:07.505Z,95751.44
2022-08-17T12:54:46.711Z,95751.56
2022-08-17T12:57:21.253Z,95750.94
2022-08-17T12:59:53.291Z,95745.00
2022-08-17T13:02:33.761Z,95746.78
2022-08-17T13:05:03.720Z,95746.63
2022-08-17T13:07:36.669Z,95740.22
2022-08-17T13:10:05.907Z,95735.41
2022-08-17T13:12:36.745Z,95738.31
2022-08-17T13:15:06.081Z,95728.63
2022-08-17T13:17:37.357Z,95728.81
2022-08-17T13:20:16.029Z,95723.50
2022-08-17T13:22:45.122Z,95736.38
2022-08-17T13:25:17.772Z,95727.38
2022-08-17T13:27:49.025Z,95721.59
2022-08-17T13:30:22.473Z,95734.78
2022-08-17T13:32:53.861Z,95725.59
2022-08-17T13:35:47.111Z,95722.84
2022-08-17T13:38:40.536Z,95718.03
2022-08-17T13:41:08.976Z,95719.78
2022-08-17T13:43:46.369Z,95727.53
2022-08-17T13:46:21.083Z,95729.78
2022-08-17T13:49:00.420Z,95731.53
2022-08-17T13:51:35.669Z,95728.16
2022-08-17T13:54:20.370Z,95726.72
2022-08-17T13:57:08.292Z,95728.66
2022-08-17T13:59:54.217Z,95724.47
2022-08-17T14:02:28.330Z,95720.09
2022-08-17T14:05:00.532Z,95714.63
2022-08-17T14:07:36.438Z,95717.38
2022-08-17T14:10:10.964Z,95703.66
2022-08-17T14:12:42.320Z,95706.88
2022-08-17T14:15:13.133Z,95699.28
2022-08-17T14:17:41.987Z,95704.09
2022-08-17T14:20:14.114Z,95697.66
2022-08-17T14:22:46.301Z,95687.81
2022-08-17T14:25:18.745Z,95692.81
2022-08-17T14:27:53.598Z,95682.19
2022-08-17T14:30:24.921Z,95682.69
2022-08-17T14:32:58.000Z,95686.06
2022-08-17T14:35:28.111Z,95684.13
2022-08-17T14:37:58.497Z,95683.03
2022-08-17T14:40:28.108Z,95682.25
2022-08-17T14:42:58.161Z,95672.25
2022-08-17T14:45:29.850Z,95670.34
2022-08-17T14:48:01.862Z,95677.44
2022-08-17T14:50:30.630Z,95669.75
2022-08-17T14:53:02.489Z,95666.06
2022-08-17T14:55:31.081Z,95666.22
2022-08-17T14:57:59.770Z,95671.53
2022-08-17T15:00:28.583Z,95664.06
2022-08-17T15:02:59.225Z,95660.19
2022-08-17T15:05:31.628Z,95651.97
2022-08-17T15:08:03.009Z,95658.72
2022-08-17T15:10:31.768Z,95651.94
2022-08-17T15:13:00.495Z,95650.63
2022-08-17T15:15:29.919Z,95649.31
2022-08-17T15:18:00.074Z,95650.25
2022-08-17T15:20:30.971Z,95655.56
2022-08-17T15:23:01.219Z,95657.75
2022-08-17T15:25:32.013Z,95653.59
2022-08-17T15:28:01.821Z,95660.19
2022-08-17T15:30:31.202Z,95659.22
2022-08-17T15:33:00.834Z,95659.22
2022-08-17T15:35:32.211Z,95648.13
2022-08-17T15:38:11.106Z,95655.56
2022-08-17T15:40:43.288Z,95652.66
2022-08-17T15:43:13.620Z,95662.53
2022-08-17T15:45:42.794Z,95664.47
2022-08-17T15:48:14.331Z,95669.16
2022-08-17T15:50:43.221Z,95668.53
2022-08-17T15:53:14.333Z,95675.94
2022-08-17T15:55:43.965Z,95662.44
2022-08-17T15:58:12.366Z,95660.34
2022-08-17T16:00:52.966Z,95650.06
2022-08-17T16:04:01.108Z,95653.44
2022-08-17T16:06:19.679Z,95656.81
2022-08-17T16:08:49.536Z,95652.66
2022-08-17T16:11:18.954Z,95666.06
2022-08-17T16:13:54.630Z,95661.38
2022-08-17T16:16:24.346Z,95670.41
2022-08-17T16:18:56.306Z,95660.44
2022-08-17T16:21:31.114Z,95656.56
2022-08-17T16:24:13.286Z,95663.94
2022-08-17T16:26:42.361Z,95659.28
2022-08-17T16:29:11.071Z,95657.84
2022-08-17T16:31:41.757Z,95654.13
2022-08-17T16:34:17.371Z,95648.16
2022-08-17T16:36:55.127Z,95647.22
2022-08-17T16:39:29.002Z,95638.03
2022-08-17T16:41:58.371Z,95639.00
2022-08-17T16:44:31.661Z,95638.06
2022-08-17T16:47:01.003Z,95635.44
2022-08-17T16:49:35.952Z,95635.56
2022-08-17T16:52:09.750Z,95626.72
2022-08-17T16:54:43.988Z,95621.91
2022-08-17T16:57:14.532Z,95620.78
2022-08-17T16:59:48.015Z,95618.53
2022-08-17T17:02:18.080Z,95620.78
2022-08-17T17:04:52.952Z,95613.84
2022-08-17T17:07:38.856Z,95618.34
2022-08-17T17:10:11.960Z,95616.91
2022-08-17T17:13:01.413Z,95608.03
2022-08-17T17:15:51.662Z,95622.50
2022-08-17T17:18:24.220Z,95614.28
2022-08-17T17:20:56.834Z,95617.75
2022-08-17T17:23:38.964Z,95614.66
2022-08-17T17:26:22.961Z,95622.53
2022-08-17T17:29:04.122Z,95601.13
2022-08-17T17:31:40.556Z,95599.66
2022-08-17T17:34:14.573Z,95600.13
2022-08-17T17:36:48.223Z,95607.47
2022-08-17T17:39:20.131Z,95599.03
2022-08-17T17:41:53.939Z,95597.22
2022-08-17T17:44:27.454Z,95604.34
2022-08-17T17:47:00.230Z,95600.31
2022-08-17T17:49:31.956Z,95608.00
2022-08-17T17:52:14.410Z,95610.75
2022-08-17T17:54:57.580Z,95606.50
2022-08-17T17:57:44.189Z,95607.75
2022-08-17T18:00:16.383Z,95604.69
2022-08-17T18:02:56.653Z,95606.50
2022-08-17T18:05:49.598Z,95604.63
2022-08-17T18:08:34.863Z,95607.59
2022-08-17T18:11:24.275Z,95601.16
2022-08-17T18:14:06.330Z,95597.94
2022-08-17T18:16:36.263Z,95591.91
2022-08-17T18:19:06.127Z,95586.16
2022-08-17T18:21:38.925Z,95576.34
2022-08-17T18:24:10.448Z,95585.56
2022-08-17T18:26:47.939Z,95585.25
2022-08-17T18:29:35.963Z,95591.00
2022-08-17T18:32:28.301Z,95589.88
2022-08-17T18:34:59.714Z,95585.84
2022-08-17T18:37:39.929Z,95584.56
2022-08-17T18:40:33.629Z,95589.31
2022-08-17T18:43:12.553Z,95588.31
2022-08-17T18:45:47.141Z,95591.31
2022-08-17T18:48:24.499Z,95591.13
2022-08-17T18:50:58.290Z,95590.31
2022-08-17T18:53:36.994Z,95584.97
2022-08-17T18:56:24.213Z,95563.84
2022-08-17T18:58:59.735Z,95569.66
2022-08-17T19:01:47.159Z,95564.28
2022-08-17T19:04:34.484Z,95572.34
2022-08-17T19:07:10.507Z,95579.50
2022-08-17T19:09:44.402Z,95592.50
2022-08-17T19:12:27.372Z,95600.44
2022-08-17T19:14:58.035Z,95609.19
2022-08-17T19:17:37.215Z,95623.56
2022-08-17T19:20:13.098Z,95635.16
2022-08-17T19:22:55.134Z,95638.03
2022-08-17T19:25:28.070Z,95648.25
2022-08-17T19:28:21.715Z,95662.13
2022-08-17T19:30:56.334Z,95652.09
2022-08-17T19:33:27.195Z,95652.38
2022-08-17T19:36:06.370Z,95654.56
2022-08-17T19:38:48.591Z,95644.34
2022-08-17T19:41:23.731Z,95637.66
2022-08-17T19:44:02.391Z,95642.66
2022-08-17T19:46:48.715Z,95648.53
2022-08-17T19:49:41.630Z,95647.66
2022-08-17T19:52:30.844Z,95640.59
2022-08-17T19:55:05.730Z,95635.16
2022-08-17T19:57:45.119Z,95631.88
2022-08-17T20:00:17.257Z,95633.47
2022-08-17T20:02:53.671Z,95639.41
2022-08-17T20:05:28.196Z,95636.41
2022-08-17T20:08:02.753Z,95634.53
2022-08-17T20:10:39.660Z,95641.13
2022-08-17T20:13:12.222Z,95627.34
2022-08-17T20:15:43.849Z,95618.13
2022-08-17T20:18:21.012Z,95612.78
2022-08-17T20:20:59.361Z,95626.72
2022-08-17T20:23:50.566Z,95626.78
2022-08-17T20:26:26.371Z,95619.72
2022-08-17T20:29:31.903Z,95610.72
2022-08-17T20:32:20.007Z,95613.19
2022-08-17T20:34:49.240Z,95616.91
2022-08-17T20:37:31.862Z,95609.91
2022-08-17T20:40:20.565Z,95609.66
2022-08-17T20:42:49.131Z,95613.00
2022-08-17T20:46:02.215Z,95602.50
2022-08-17T20:48:38.312Z,95599.84
2022-08-17T20:51:20.142Z,95594.84
2022-08-17T20:54:06.632Z,95597.47
2022-08-17T20:57:00.563Z,95594.75
2022-08-17T21:00:05.209Z,95599.94
2022-08-17T21:02:34.081Z,95599.22
2022-08-17T21:05:30.183Z,95591.38
2022-08-17T21:08:02.059Z,95592.00
2022-08-17T21:10:38.840Z,95589.50
2022-08-17T21:13:55.164Z,95580.56
2022-08-17T21:16:34.371Z,95581.91
2022-08-17T21:19:22.986Z,95580.75
2022-08-17T21:22:05.203Z,95576.09
2022-08-17T21:24:51.814Z,95580.44
2022-08-17T21:27:35.749Z,95575.28
2022-08-17T21:30:25.355Z,95577.81
2022-08-17T21:33:21.178Z,95580.09
2022-08-17T21:35:52.206Z,95581.03
2022-08-17T21:38:24.371Z,95578.09
2022-08-17T21:40:54.397Z,95590.31
2022-08-17T21:43:30.295Z,95590.38
2022-08-17T21:46:03.456Z,95589.91
2022-08-17T21:48:41.319Z,95579.13
2022-08-17T21:51:12.397Z,95586.25
2022-08-17T21:53:48.572Z,95592.13
2022-08-17T21:56:27.041Z,95598.22
2022-08-17T21:59:00.388Z,95599.47
2022-08-17T22:01:34.401Z,95587.34
2022-08-17T22:04:08.650Z,95594.41
2022-08-17T22:06:40.214Z,95592.69
2022-08-17T22:09:17.703Z,95601.81
2022-08-17T22:11:55.491Z,95607.66
2022-08-17T22:14:52.247Z,95608.38
2022-08-17T22:17:19.159Z,95608.44
2022-08-17T22:19:51.454Z,95606.69
2022-08-17T22:22:30.340Z,95605.06
2022-08-17T22:25:03.071Z,95610.56
2022-08-17T22:27:50.661Z,95609.63
2022-08-17T22:30:34.093Z,95602.13
2022-08-17T22:33:36.267Z,95611.59
2022-08-17T22:36:29.728Z,95605.59
2022-08-17T22:39:00.092Z,95599.59
2022-08-17T22:41:42.042Z,95602.81
2022-08-17T22:44:27.760Z,95619.56
2022-08-17T22:47:22.374Z,95616.59
2022-08-17T22:49:57.482Z,95626.66
2022-08-17T22:52:34.819Z,95632.91
2022-08-17T22:55:38.009Z,95641.63
2022-08-17T22:58:29.643Z,95665.25
2022-08-17T23:00:58.121Z,95698.88
2022-08-17T23:03:28.643Z,95696.19
2022-08-17T23:06:06.984Z,95704.56
2022-08-17T23:08:43.496Z,95719.72
2022-08-17T23:11:12.064Z,95724.88
2022-08-17T23:13:40.773Z,95738.13
2022-08-17T23:16:09.372Z,95737.53
2022-08-17T23:18:39.125Z,95743.25
2022-08-17T23:21:07.781Z,95743.78
2022-08-17T23:23:37.099Z,95751.09
2022-08-17T23:26:11.290Z,95770.00
2022-08-17T23:28:43.722Z,95777.31
2022-08-17T23:31:14.111Z,95774.31
2022-08-17T23:33:44.411Z,95792.44
2022-08-17T23:36:15.743Z,95810.50
2022-08-17T23:38:48.969Z,95807.25
2022-08-17T23:41:21.644Z,95809.88
2022-08-17T23:43:53.775Z,95817.16
2022-08-17T23:46:25.076Z,95832.22
2022-08-17T23:48:54.948Z,95830.88
2022-08-17T23:51:26.596Z,95834.09
2022-08-17T23:53:58.797Z,95840.81
2022-08-17T23:56:27.388Z,95845.06
2022-08-17T23:58:58.097Z,95846.94
